Time;durP1;ratioP1;P1;durP2;ratioP2;P2;SDS_P1;SDS_P2;PMS_P1;PMS_P2;Temp;Humidity;BMP_temperature;BMP_pressure;BME280_temperature;BME280_humidity;BME280_pressure;Samples;Min_cycle;Max_cycle;Signal;HPM_P1;HPM_P2
2024/01/13 00:01:47;;;;;;;9.55;5.60;;;23.10;38.40;;;;;;6262374;27;80659;-50
2024/01/13 00:04:47;;;;;;;8.05;5.20;;;23.00;38.30;;;;;;6277896;27;80785;-48
2024/01/13 00:07:48;;;;;;;7.95;5.38;;;23.00;38.20;;;;;;6279224;27;80727;-50
2024/01/13 00:10:48;;;;;;;10.45;5.65;;;23.00;38.40;;;;;;6277451;27;80766;-50
2024/01/13 00:13:49;;;;;;;8.90;5.47;;;23.00;38.40;;;;;;6278668;27;80392;-52
2024/01/13 00:16:49;;;;;;;9.55;6.00;;;22.90;38.30;;;;;;6279278;27;83632;-49
2024/01/13 00:19:50;;;;;;;8.80;6.10;;;22.90;38.30;;;;;;6278508;27;80952;-50
2024/01/13 00:22:50;;;;;;;8.40;5.53;;;22.90;38.30;;;;;;6259954;27;83237;-47
2024/01/13 00:25:50;;;;;;;10.07;5.93;;;22.90;38.10;;;;;;6255614;27;87136;-52
2024/01/13 00:28:51;;;;;;;7.32;5.22;;;22.90;38.00;;;;;;6274766;27;80322;-50
2024/01/13 00:31:51;;;;;;;9.07;5.32;;;22.90;38.10;;;;;;6272739;27;80329;-60
2024/01/13 00:34:52;;;;;;;8.68;5.80;;;22.90;37.90;;;;;;6252821;27;82067;-58
2024/01/13 00:37:52;;;;;;;7.80;5.30;;;22.80;37.90;;;;;;6255844;27;80742;-57
2024/01/13 00:40:53;;;;;;;7.63;5.28;;;22.80;37.80;;;;;;6277912;27;81095;-59
2024/01/13 00:43:53;;;;;;;8.27;5.20;;;22.80;37.80;;;;;;6263367;27;80823;-59
2024/01/13 00:46:54;;;;;;;9.35;6.10;;;22.80;37.70;;;;;;6276958;27;81167;-60
2024/01/13 00:49:54;;;;;;;9.05;5.95;;;22.80;37.70;;;;;;6257615;27;80811;-50
2024/01/13 00:52:55;;;;;;;9.15;5.68;;;22.80;37.70;;;;;;6253297;27;80503;-52
2024/01/13 00:55:55;;;;;;;8.05;5.55;;;22.80;37.80;;;;;;6253664;27;80677;-51
2024/01/13 00:58:55;;;;;;;9.63;5.40;;;22.80;37.90;;;;;;6242839;27;86609;-50
2024/01/13 01:01:56;;;;;;;11.00;5.75;;;22.70;37.90;;;;;;6256080;27;80406;-50
2024/01/13 01:04:56;;;;;;;8.13;5.50;;;22.70;37.80;;;;;;6254930;27;80080;-48
2024/01/13 01:07:57;;;;;;;9.93;6.45;;;22.70;37.80;;;;;;6255513;27;83007;-50
2024/01/13 01:10:57;;;;;;;9.38;6.07;;;22.70;37.70;;;;;;6254315;27;80689;-50
2024/01/13 01:13:58;;;;;;;8.80;5.72;;;22.70;38.00;;;;;;6255892;27;80610;-48
2024/01/13 01:16:58;;;;;;;7.10;4.80;;;22.70;37.80;;;;;;6254986;27;80959;-51
2024/01/13 01:19:59;;;;;;;7.93;5.35;;;22.70;38.40;;;;;;6264436;27;81152;-51
2024/01/13 01:22:59;;;;;;;10.07;6.10;;;22.70;38.20;;;;;;6262702;27;80849;-48
2024/01/13 01:26:00;;;;;;;7.97;5.13;;;22.70;38.10;;;;;;6274595;27;80661;-51
2024/01/13 01:29:00;;;;;;;8.38;5.05;;;22.70;38.10;;;;;;6273688;27;80585;-51
2024/01/13 01:32:01;;;;;;;8.18;5.30;;;22.70;38.10;;;;;;6273949;27;82272;-48
2024/01/13 01:35:01;;;;;;;9.85;6.20;;;22.70;37.90;;;;;;6274949;27;80295;-50
2024/01/13 01:38:02;;;;;;;8.27;5.75;;;22.60;37.80;;;;;;6274231;27;80331;-48
2024/01/13 01:41:02;;;;;;;7.70;5.55;;;22.70;38.00;;;;;;6263637;27;80583;-47
2024/01/13 01:44:03;;;;;;;9.38;5.43;;;22.70;37.80;;;;;;6251948;27;80367;-60
2024/01/13 01:47:03;;;;;;;8.82;5.53;;;22.60;37.80;;;;;;6263995;27;80033;-60
2024/01/13 01:50:04;;;;;;;9.43;5.93;;;22.60;38.00;;;;;;6262863;27;81553;-60
2024/01/13 01:53:04;;;;;;;8.18;5.25;;;22.60;38.00;;;;;;6269672;27;80015;-59
2024/01/13 01:56:05;;;;;;;10.15;6.13;;;22.60;38.20;;;;;;6256974;27;80530;-60
2024/01/13 01:59:06;;;;;;;7.63;5.35;;;22.60;40.30;;;;;;6277146;27;80361;-59
2024/01/13 02:02:06;;;;;;;9.10;5.15;;;22.60;39.30;;;;;;6276829;27;80601;-57
2024/01/13 02:05:07;;;;;;;7.40;5.00;;;22.60;39.60;;;;;;6276901;27;80707;-59
2024/01/13 02:08:07;;;;;;;6.75;4.60;;;22.60;39.90;;;;;;6276272;27;80537;-59
2024/01/13 02:11:08;;;;;;;6.40;4.35;;;22.60;39.70;;;;;;6275638;27;80746;-60
2024/01/13 02:14:08;;;;;;;8.00;5.03;;;22.60;41.10;;;;;;6275198;27;80344;-59
2024/01/13 02:17:09;;;;;;;5.97;4.30;;;22.60;39.80;;;;;;6275291;27;80959;-60
2024/01/13 02:20:09;;;;;;;8.60;5.00;;;22.60;39.50;;;;;;6275348;27;81281;-58
2024/01/13 02:23:10;;;;;;;7.05;4.50;;;22.60;39.40;;;;;;6275480;27;80786;-62
2024/01/13 02:26:10;;;;;;;7.38;4.72;;;22.60;39.30;;;;;;6264095;27;80210;-63
2024/01/13 02:29:11;;;;;;;6.22;4.25;;;22.60;39.00;;;;;;6251466;27;81532;-61
2024/01/13 02:32:11;;;;;;;5.80;4.18;;;22.60;39.30;;;;;;6265617;27;80238;-61
2024/01/13 02:35:12;;;;;;;6.32;4.53;;;22.60;39.20;;;;;;6253111;27;81333;-61
2024/01/13 02:38:12;;;;;;;5.68;4.28;;;22.60;39.60;;;;;;6251975;27;80494;-63
2024/01/13 02:41:13;;;;;;;5.88;4.32;;;22.60;39.90;;;;;;6251732;27;81120;-63
2024/01/13 02:44:13;;;;;;;6.25;4.15;;;22.60;39.80;;;;;;6252820;27;80110;-63
2024/01/13 02:47:14;;;;;;;5.80;4.35;;;22.60;41.30;;;;;;6252130;27;80770;-63
2024/01/13 02:50:14;;;;;;;7.18;4.30;;;22.50;42.00;;;;;;6252006;27;81773;-63
2024/01/13 02:53:15;;;;;;;5.13;3.80;;;22.60;42.10;;;;;;6251769;27;80701;-63
2024/01/13 02:56:15;;;;;;;4.60;3.55;;;22.50;41.10;;;;;;6251110;27;80317;-62
2024/01/13 02:59:16;;;;;;;4.40;3.60;;;22.50;42.20;;;;;;6257418;27;80994;-60
2024/01/13 03:02:16;;;;;;;6.88;4.30;;;22.50;42.40;;;;;;6272850;27;80847;-59
2024/01/13 03:05:17;;;;;;;5.25;3.72;;;22.50;43.60;;;;;;6250624;27;80477;-60
2024/01/13 03:08:17;;;;;;;5.05;3.58;;;22.50;42.50;;;;;;6252426;27;80458;-59
2024/01/13 03:11:18;;;;;;;4.00;3.45;;;22.50;41.80;;;;;;6250163;27;80303;-59
2024/01/13 03:14:18;;;;;;;5.00;3.83;;;22.50;42.40;;;;;;6253050;27;81018;-60
2024/01/13 03:17:19;;;;;;;6.43;3.72;;;22.50;42.30;;;;;;6252819;27;80416;-60
2024/01/13 03:20:19;;;;;;;4.68;3.17;;;22.50;42.30;;;;;;6264766;27;80985;-59
2024/01/13 03:23:20;;;;;;;5.32;3.80;;;22.50;42.50;;;;;;6265891;27;80752;-60
2024/01/13 03:26:20;;;;;;;5.53;3.67;;;22.50;40.80;;;;;;6276210;27;80541;-60
2024/01/13 03:29:21;;;;;;;5.07;3.03;;;22.50;40.40;;;;;;6248906;27;84773;-60
2024/01/13 03:32:21;;;;;;;4.45;3.33;;;22.50;40.10;;;;;;6260030;27;80286;-60
2024/01/13 03:35:22;;;;;;;4.75;3.55;;;22.50;40.20;;;;;;6258501;27;81824;-49
2024/01/13 03:38:24;;;;;;;4.75;3.80;;;22.50;40.10;;;;;;6256442;27;80731;-48
2024/01/13 03:41:24;;;;;;;8.82;3.72;;;22.50;40.30;;;;;;6250575;27;81310;-48
2024/01/13 03:44:25;;;;;;;4.75;3.55;;;22.50;40.30;;;;;;6249591;27;80658;-50
2024/01/13 03:47:25;;;;;;;8.98;3.92;;;22.50;40.10;;;;;;6264147;27;80370;-47
2024/01/13 03:50:26;;;;;;;4.50;3.13;;;22.50;40.20;;;;;;6251101;27;80423;-53
2024/01/13 03:53:28;;;;;;;4.07;2.92;;;22.50;40.20;;;;;;6253144;27;81757;-64
2024/01/13 03:56:29;;;;;;;6.40;3.35;;;22.50;40.00;;;;;;6271294;27;80485;-63
2024/01/13 03:59:29;;;;;;;3.90;2.85;;;22.50;40.20;;;;;;6266629;27;80081;-65
2024/01/13 04:02:30;;;;;;;3.78;2.53;;;22.50;40.20;;;;;;6255135;27;81521;-65
2024/01/13 04:05:30;;;;;;;4.18;3.33;;;22.50;39.90;;;;;;6259030;27;80504;-65
2024/01/13 04:08:32;;;;;;;6.07;3.35;;;22.50;39.60;;;;;;6247334;27;81464;-64
2024/01/13 04:11:32;;;;;;;3.42;2.67;;;22.60;39.60;;;;;;6273305;27;80791;-64
2024/01/13 04:14:33;;;;;;;3.58;2.70;;;22.60;39.70;;;;;;6273867;27;82059;-67
2024/01/13 04:17:33;;;;;;;3.70;2.67;;;22.70;39.80;;;;;;6273362;27;80475;-64
2024/01/13 04:20:34;;;;;;;3.58;2.67;;;22.70;39.90;;;;;;6274121;27;80557;-65
2024/01/13 04:23:34;;;;;;;3.80;2.55;;;22.80;39.70;;;;;;6270719;27;80681;-65
2024/01/13 04:26:35;;;;;;;3.10;2.67;;;22.80;39.90;;;;;;6247527;27;81083;-67
2024/01/13 04:29:35;;;;;;;2.75;2.45;;;22.80;40.00;;;;;;6269089;27;80621;-51
2024/01/13 04:32:36;;;;;;;3.35;2.65;;;22.90;40.30;;;;;;6255404;27;83266;-47
2024/01/13 04:35:36;;;;;;;2.85;2.50;;;22.90;40.30;;;;;;6262244;27;81183;-48
2024/01/13 04:38:36;;;;;;;4.68;3.15;;;22.90;40.40;;;;;;6263333;27;80585;-49
2024/01/13 04:41:41;;;;;;;4.40;2.55;;;22.90;40.40;;;;;;6249875;27;80211;-48
2024/01/13 04:44:41;;;;;;;3.55;2.70;;;22.90;40.50;;;;;;6249400;27;81669;-52
2024/01/13 04:47:42;;;;;;;2.70;2.15;;;22.90;40.60;;;;;;6250092;27;80542;-47
2024/01/13 04:50:42;;;;;;;4.88;2.95;;;23.00;40.70;;;;;;6254748;27;80474;-50
2024/01/13 04:53:43;;;;;;;4.00;2.17;;;23.00;40.80;;;;;;6254273;27;82931;-48
2024/01/13 04:56:43;;;;;;;2.90;2.22;;;23.00;40.70;;;;;;6253974;27;80193;-48
2024/01/13 04:59:45;;;;;;;3.40;2.65;;;23.00;40.50;;;;;;6254844;27;82038;-54
2024/01/13 05:02:45;;;;;;;2.90;2.22;;;23.00;40.20;;;;;;6264589;27;81096;-50
2024/01/13 05:05:46;;;;;;;2.75;2.00;;;23.00;40.10;;;;;;6255843;27;87255;-49
2024/01/13 05:08:46;;;;;;;3.85;2.67;;;23.00;40.00;;;;;;6277628;27;80695;-50
2024/01/13 05:11:47;;;;;;;3.28;2.33;;;23.00;40.50;;;;;;6270489;27;82917;-47
2024/01/13 05:14:47;;;;;;;3.38;2.15;;;23.00;39.60;;;;;;6274242;27;81616;-52
2024/01/13 05:17:48;;;;;;;2.53;2.10;;;23.00;39.80;;;;;;6276263;27;82782;-50
2024/01/13 05:20:48;;;;;;;3.90;2.22;;;23.00;39.80;;;;;;6277546;27;86900;-48
2024/01/13 05:23:49;;;;;;;3.42;2.50;;;23.10;39.80;;;;;;6271508;27;81006;-58
2024/01/13 05:26:49;;;;;;;4.18;2.67;;;23.10;39.70;;;;;;6276166;27;80384;-59
2024/01/13 05:29:50;;;;;;;2.65;2.45;;;23.10;39.60;;;;;;6255607;27;90292;-58
2024/01/13 05:32:50;;;;;;;2.13;1.92;;;23.10;39.70;;;;;;6264422;27;80636;-59
2024/01/13 05:35:51;;;;;;;4.75;2.10;;;23.10;39.40;;;;;;6270569;27;81099;-60
2024/01/13 05:38:51;;;;;;;3.58;2.38;;;23.10;39.90;;;;;;6270064;27;80432;-61
2024/01/13 05:41:52;;;;;;;5.43;2.10;;;23.10;39.70;;;;;;6275483;27;80837;-61
2024/01/13 05:44:52;;;;;;;4.53;2.22;;;23.10;39.80;;;;;;6274859;27;83873;-60
2024/01/13 05:47:53;;;;;;;5.78;2.40;;;23.10;40.00;;;;;;6273283;27;81328;-58
2024/01/13 05:50:53;;;;;;;3.05;2.25;;;23.20;39.90;;;;;;6274887;27;81072;-60
2024/01/13 05:53:53;;;;;;;2.97;2.10;;;23.20;40.00;;;;;;6269784;27;82800;-60
2024/01/13 05:56:54;;;;;;;4.13;2.42;;;23.20;40.40;;;;;;6275108;27;81408;-55
2024/01/13 05:59:54;;;;;;;4.13;2.08;;;23.20;40.20;;;;;;6274481;27;80676;-59
2024/01/13 06:02:57;;;;;;;2.22;1.92;;;23.20;40.20;;;;;;6275312;27;81134;-53
2024/01/13 06:05:58;;;;;;;4.10;2.40;;;23.20;40.30;;;;;;6257498;27;82291;-49
2024/01/13 06:08:58;;;;;;;3.13;2.33;;;23.20;40.20;;;;;;6254712;27;80651;-51
2024/01/13 06:11:59;;;;;;;2.75;2.00;;;23.20;40.50;;;;;;6249978;27;80612;-50
2024/01/13 06:14:59;;;;;;;3.10;1.90;;;23.20;40.10;;;;;;6252976;27;80852;-50
2024/01/13 06:17:59;;;;;;;6.45;2.20;;;23.10;40.20;;;;;;6254897;27;80424;-49
2024/01/13 06:21:00;;;;;;;3.10;1.98;;;23.10;40.20;;;;;;6267479;27;80451;-52
2024/01/13 06:24:01;;;;;;;3.03;1.92;;;23.10;39.90;;;;;;6251439;27;81148;-50
2024/01/13 06:27:01;;;;;;;3.50;2.50;;;23.10;39.70;;;;;;6256142;27;79945;-49
2024/01/13 06:30:03;;;;;;;5.78;2.40;;;23.10;39.50;;;;;;6251655;27;80514;-50
2024/01/13 06:33:03;;;;;;;5.85;2.35;;;23.10;39.50;;;;;;6265882;27;82634;-48
2024/01/13 06:36:04;;;;;;;5.22;2.08;;;23.10;39.50;;;;;;6276424;27;80853;-50
2024/01/13 06:39:05;;;;;;;4.28;2.38;;;23.00;39.10;;;;;;6276478;27;80049;-54
2024/01/13 06:42:06;;;;;;;3.28;2.33;;;23.10;39.50;;;;;;6276336;27;79992;-53
2024/01/13 06:45:06;;;;;;;9.63;2.50;;;23.10;39.20;;;;;;6275868;27;80912;-50
2024/01/13 06:48:07;;;;;;;5.25;2.78;;;23.00;40.40;;;;;;6276057;27;80335;-56
2024/01/13 06:51:07;;;;;;;6.15;2.50;;;23.00;39.30;;;;;;6272070;27;81085;-57
2024/01/13 06:54:08;;;;;;;4.65;2.63;;;23.00;39.30;;;;;;6255792;27;81505;-55
2024/01/13 06:57:08;;;;;;;3.65;2.53;;;23.00;39.20;;;;;;6270188;27;82118;-66
2024/01/13 07:00:09;;;;;;;4.40;2.60;;;23.00;39.40;;;;;;6274340;27;85706;-61
2024/01/13 07:03:10;;;;;;;5.65;3.08;;;23.00;39.70;;;;;;6272411;27;81177;-59
2024/01/13 07:06:10;;;;;;;7.07;3.20;;;23.00;39.80;;;;;;6274335;27;82778;-62
2024/01/13 07:09:11;;;;;;;9.10;3.33;;;22.90;40.00;;;;;;6271878;27;80563;-60
2024/01/13 07:12:11;;;;;;;11.15;4.00;;;23.00;41.00;;;;;;6275221;27;82149;-60
2024/01/13 07:15:12;;;;;;;6.63;3.58;;;22.90;41.70;;;;;;6252141;27;82048;-59
2024/01/13 07:18:12;;;;;;;6.35;4.03;;;22.90;41.60;;;;;;6264009;27;80397;-58
2024/01/13 07:21:13;;;;;;;7.43;4.18;;;23.00;42.20;;;;;;6260237;27;82024;-60
2024/01/13 07:24:13;;;;;;;6.40;3.97;;;22.90;42.00;;;;;;6268108;27;81077;-58
2024/01/13 07:27:14;;;;;;;7.75;4.22;;;22.90;42.40;;;;;;6272398;27;81605;-60
2024/01/13 07:30:14;;;;;;;7.10;4.10;;;22.90;41.50;;;;;;6267505;27;80971;-59
2024/01/13 07:33:15;;;;;;;6.68;4.22;;;22.90;41.60;;;;;;6263993;27;80826;-60
2024/01/13 07:36:15;;;;;;;7.55;4.00;;;22.90;41.10;;;;;;6258161;27;80295;-60
2024/01/13 07:39:16;;;;;;;7.75;3.83;;;22.90;41.00;;;;;;6264230;27;81428;-60
2024/01/13 07:42:17;;;;;;;6.18;3.42;;;22.90;40.80;;;;;;6262162;27;80977;-60
2024/01/13 07:45:17;;;;;;;5.85;3.15;;;22.90;40.90;;;;;;6269848;27;81628;-58
2024/01/13 07:48:18;;;;;;;7.50;3.00;;;22.90;41.50;;;;;;6274355;27;80484;-59
2024/01/13 07:51:18;;;;;;;9.80;3.08;;;22.80;40.70;;;;;;6267684;27;80219;-58
2024/01/13 07:54:19;;;;;;;5.13;2.92;;;22.80;40.60;;;;;;6273296;27;81519;-59
2024/01/13 07:57:19;;;;;;;4.68;2.70;;;22.80;41.30;;;;;;6261227;27;80438;-59
2024/01/13 08:00:20;;;;;;;7.55;3.20;;;22.80;41.10;;;;;;6272150;27;80785;-59
2024/01/13 08:03:20;;;;;;;6.25;4.00;;;22.90;40.70;;;;;;6265539;27;81190;-58
2024/01/13 08:06:23;;;;;;;4.18;2.80;;;22.90;40.80;;;;;;6270658;27;82329;-58
2024/01/13 08:09:23;;;;;;;8.68;3.42;;;22.90;40.90;;;;;;6260052;27;80300;-59
2024/01/13 08:12:24;;;;;;;8.60;3.42;;;23.00;40.90;;;;;;6250735;27;81354;-58
2024/01/13 08:15:25;;;;;;;4.70;2.92;;;23.00;41.00;;;;;;6272043;27;80358;-61
2024/01/13 08:18:26;;;;;;;4.43;2.80;;;23.10;41.20;;;;;;6269630;27;80916;-58
2024/01/13 08:21:26;;;;;;;4.63;2.72;;;23.10;41.40;;;;;;6271015;27;80365;-60
2024/01/13 08:24:28;;;;;;;6.43;2.83;;;23.10;42.30;;;;;;6276303;27;80911;-59
2024/01/13 08:27:28;;;;;;;6.97;3.15;;;23.20;41.30;;;;;;6277187;27;80674;-62
2024/01/13 08:30:29;;;;;;;6.20;3.47;;;23.20;40.90;;;;;;6276527;27;80348;-52
2024/01/13 08:33:29;;;;;;;6.18;3.22;;;23.20;40.70;;;;;;6259008;27;80369;-54
2024/01/13 08:36:30;;;;;;;5.22;2.90;;;23.30;40.40;;;;;;6276956;27;80242;-54
2024/01/13 08:39:30;;;;;;;5.80;3.38;;;23.30;40.20;;;;;;6278373;27;80908;-46
2024/01/13 08:42:31;;;;;;;10.77;3.65;;;23.30;40.30;;;;;;6268571;27;80418;-48
2024/01/13 08:45:33;;;;;;;4.00;2.63;;;23.30;40.10;;;;;;6261635;27;81503;-51
2024/01/13 08:48:33;;;;;;;4.05;2.85;;;23.30;40.10;;;;;;6262759;27;81972;-47
2024/01/13 08:51:34;;;;;;;3.88;2.92;;;23.30;40.10;;;;;;6276148;27;82275;-53
2024/01/13 08:54:35;;;;;;;3.97;2.50;;;23.30;39.90;;;;;;6275751;27;81644;-48
2024/01/13 08:57:35;;;;;;;6.28;2.50;;;23.30;39.70;;;;;;6271484;27;80946;-52
2024/01/13 09:00:36;;;;;;;6.22;2.50;;;23.30;39.80;;;;;;6276054;27;81199;-48
2024/01/13 09:03:36;;;;;;;4.95;3.25;;;23.30;39.60;;;;;;6277674;27;80267;-46
2024/01/13 09:06:37;;;;;;;5.32;2.92;;;23.30;39.80;;;;;;6277352;27;83219;-47
2024/01/13 09:09:37;;;;;;;4.57;2.72;;;23.30;39.90;;;;;;6276249;27;81620;-48
2024/01/13 09:12:37;;;;;;;4.68;3.10;;;23.30;40.20;;;;;;6275200;27;80854;-49
2024/01/13 09:15:38;;;;;;;4.00;2.50;;;23.30;40.10;;;;;;6260868;27;80391;-48
2024/01/13 09:18:38;;;;;;;4.88;2.63;;;23.30;40.00;;;;;;6262997;27;80551;-48
2024/01/13 09:21:39;;;;;;;6.22;2.72;;;23.30;40.00;;;;;;6275587;27;80387;-48
2024/01/13 09:24:42;;;;;;;3.83;2.58;;;23.30;40.20;;;;;;6260274;27;83811;-59
2024/01/13 09:27:43;;;;;;;7.45;2.92;;;23.30;40.00;;;;;;6274075;27;80258;-59
2024/01/13 09:30:43;;;;;;;11.23;2.60;;;23.30;40.80;;;;;;6277241;27;80760;-61
2024/01/13 09:33:44;;;;;;;4.97;2.75;;;23.40;40.60;;;;;;6276960;27;81620;-59
2024/01/13 09:36:44;;;;;;;5.60;2.42;;;23.40;40.90;;;;;;6277667;27;81631;-57
2024/01/13 09:39:45;;;;;;;10.43;2.90;;;23.40;40.80;;;;;;6275368;27;81098;-60
2024/01/13 09:42:45;;;;;;;4.90;2.70;;;23.40;40.80;;;;;;6276255;27;80934;-55
2024/01/13 09:45:46;;;;;;;4.53;2.42;;;23.40;40.40;;;;;;6276959;27;82226;-51
2024/01/13 09:48:46;;;;;;;3.70;2.65;;;23.40;40.40;;;;;;6277783;27;80586;-50
2024/01/13 09:51:47;;;;;;;4.18;2.58;;;23.40;40.40;;;;;;6275569;27;81383;-52
2024/01/13 09:54:48;;;;;;;7.50;2.60;;;23.40;40.30;;;;;;6274339;27;82811;-52
2024/01/13 09:57:48;;;;;;;7.30;2.95;;;23.50;40.40;;;;;;6257771;27;83604;-53
2024/01/13 10:00:49;;;;;;;7.85;2.30;;;23.50;40.50;;;;;;6277380;27;80354;-57
2024/01/13 10:03:49;;;;;;;17.75;3.13;;;23.50;40.30;;;;;;6269367;27;80361;-58
2024/01/13 10:06:50;;;;;;;4.80;2.45;;;23.50;40.40;;;;;;6276672;27;80973;-53
2024/01/13 10:09:50;;;;;;;5.07;2.88;;;23.50;40.10;;;;;;6272541;27;81006;-56
2024/01/13 10:12:52;;;;;;;4.68;2.63;;;23.50;39.90;;;;;;6274839;27;80733;-59
2024/01/13 10:15:52;;;;;;;7.45;2.78;;;23.50;39.90;;;;;;6277349;27;80336;-56
2024/01/13 10:18:54;;;;;;;6.38;2.58;;;23.50;40.10;;;;;;6276698;27;81121;-60
2024/01/13 10:21:55;;;;;;;3.50;2.55;;;23.50;39.70;;;;;;6276153;27;82252;-56
2024/01/13 10:24:55;;;;;;;6.47;2.65;;;23.50;39.70;;;;;;6276794;27;81722;-53
2024/01/13 10:27:56;;;;;;;6.78;2.28;;;23.50;39.70;;;;;;6263319;27;80610;-55
2024/01/13 10:30:56;;;;;;;6.85;2.45;;;23.50;39.70;;;;;;6252776;27;80526;-54
2024/01/13 10:33:57;;;;;;;3.97;2.80;;;23.60;39.60;;;;;;6261294;27;80194;-53
2024/01/13 10:36:57;;;;;;;4.10;2.53;;;23.50;39.50;;;;;;6274749;27;80342;-55
2024/01/13 10:39:58;;;;;;;6.40;2.35;;;23.60;39.60;;;;;;6271867;27;80504;-51
2024/01/13 10:42:58;;;;;;;10.57;2.47;;;23.60;39.80;;;;;;6267621;27;83639;-57
2024/01/13 10:45:59;;;;;;;6.28;2.50;;;23.50;39.90;;;;;;6272790;27;81603;-54
2024/01/13 10:49:02;;;;;;;8.80;2.70;;;23.50;40.10;;;;;;6257580;27;82607;-52
2024/01/13 10:52:03;;;;;;;7.00;2.65;;;23.50;39.80;;;;;;6273562;27;81305;-52
2024/01/13 10:55:04;;;;;;;6.03;2.28;;;23.50;39.60;;;;;;6272276;27;81613;-61
2024/01/13 10:58:05;;;;;;;5.65;2.53;;;23.50;39.90;;;;;;6273411;27;80381;-61
2024/01/13 11:01:05;;;;;;;7.63;2.42;;;23.50;40.10;;;;;;6257869;27;81042;-61
2024/01/13 11:04:06;;;;;;;4.32;2.78;;;23.50;40.10;;;;;;6275434;27;80340;-62
2024/01/13 11:07:06;;;;;;;4.53;2.50;;;23.50;40.00;;;;;;6273985;27;80456;-62
2024/01/13 11:10:07;;;;;;;5.47;2.55;;;23.50;40.20;;;;;;6257850;27;81222;-61
2024/01/13 11:13:08;;;;;;;3.95;1.92;;;23.50;40.00;;;;;;6276537;27;80384;-59
2024/01/13 11:16:08;;;;;;;3.83;2.03;;;23.50;40.10;;;;;;6268173;27;81226;-53
2024/01/13 11:19:09;;;;;;;4.00;2.40;;;23.50;40.30;;;;;;6275310;27;80316;-55
2024/01/13 11:22:09;;;;;;;4.50;2.30;;;23.60;40.40;;;;;;6272836;27;80912;-53
2024/01/13 11:25:10;;;;;;;4.88;2.45;;;23.60;40.50;;;;;;6275749;27;81039;-50
2024/01/13 11:28:10;;;;;;;6.60;2.80;;;23.60;40.70;;;;;;6274678;27;82469;-55
2024/01/13 11:31:11;;;;;;;4.57;2.17;;;23.60;40.80;;;;;;6278126;27;80640;-54
2024/01/13 11:34:11;;;;;;;5.40;2.40;;;23.60;40.90;;;;;;6272366;27;80678;-61
2024/01/13 11:37:13;;;;;;;3.70;2.50;;;23.60;41.00;;;;;;6272407;27;80531;-59
2024/01/13 11:40:13;;;;;;;4.72;2.30;;;23.60;40.90;;;;;;6276785;27;80761;-60
2024/01/13 11:43:13;;;;;;;3.38;2.22;;;23.60;40.90;;;;;;6273155;27;80455;-62
2024/01/13 11:46:14;;;;;;;5.45;2.20;;;23.70;41.00;;;;;;6272607;27;80385;-61
2024/01/13 11:49:14;;;;;;;4.30;2.38;;;23.70;41.10;;;;;;6274154;27;81283;-63
2024/01/13 11:52:15;;;;;;;3.30;2.08;;;23.70;41.10;;;;;;6268427;27;81092;-52
2024/01/13 11:55:15;;;;;;;4.85;2.10;;;23.70;41.00;;;;;;6278060;27;81291;-52
2024/01/13 11:58:17;;;;;;;4.45;2.00;;;23.70;41.10;;;;;;6278957;27;80927;-56
2024/01/13 12:01:17;;;;;;;4.30;2.22;;;23.70;41.00;;;;;;6279297;27;81101;-51
2024/01/13 12:04:18;;;;;;;3.47;2.03;;;23.70;41.30;;;;;;6269165;27;80531;-51
2024/01/13 12:07:18;;;;;;;5.18;2.67;;;23.70;40.50;;;;;;6262442;27;81275;-56
2024/01/13 12:10:19;;;;;;;11.23;4.07;;;23.70;40.40;;;;;;6257893;27;81222;-57
2024/01/13 12:13:19;;;;;;;12.07;4.22;;;23.70;40.60;;;;;;6253900;27;80667;-54
2024/01/13 12:16:20;;;;;;;23.58;7.07;;;23.70;40.60;;;;;;6267828;27;80621;-53
2024/01/13 12:19:20;;;;;;;30.20;8.20;;;23.80;41.40;;;;;;6273234;27;81405;-50
2024/01/13 12:22:21;;;;;;;37.95;12.60;;;23.80;41.90;;;;;;6276758;27;80297;-52
2024/01/13 12:25:21;;;;;;;29.52;11.95;;;23.90;43.60;;;;;;6274206;27;83034;-54
2024/01/13 12:28:22;;;;;;;50.83;18.30;;;23.80;43.60;;;;;;6264581;27;83128;-60
2024/01/13 12:31:22;;;;;;;56.75;16.35;;;23.90;45.70;;;;;;6268422;27;83604;-59
2024/01/13 12:34:23;;;;;;;49.28;15.73;;;23.90;45.30;;;;;;6265595;27;82907;-64
2024/01/13 12:37:23;;;;;;;66.88;19.92;;;24.00;46.40;;;;;;6265867;27;84398;-61
2024/01/13 12:40:24;;;;;;;66.15;18.90;;;24.00;48.00;;;;;;6266825;27;84590;-60
2024/01/13 12:43:25;;;;;;;55.13;17.60;;;24.00;46.10;;;;;;6269031;27;83278;-61
2024/01/13 12:46:25;;;;;;;57.60;19.95;;;24.00;45.40;;;;;;6266704;27;83940;-61
2024/01/13 17:09:54;;;;;;;5.15;2.92;;;23.90;47.40;;;;;;6257059;27;80852;-59
2024/01/13 17:12:55;;;;;;;3.67;2.50;;;24.00;45.40;;;;;;6247620;27;81157;-59
2024/01/13 17:15:56;;;;;;;4.22;1.98;;;23.90;44.40;;;;;;6251775;27;80577;-59
2024/01/13 17:18:57;;;;;;;3.90;2.20;;;23.90;44.10;;;;;;6247971;27;80741;-60
2024/01/13 17:21:58;;;;;;;5.45;2.50;;;23.90;44.10;;;;;;6248030;27;81096;-61
2024/01/13 17:24:59;;;;;;;7.25;2.10;;;23.90;44.00;;;;;;6243119;27;84548;-59
2024/01/13 17:27:59;;;;;;;2.95;2.03;;;23.90;44.00;;;;;;6250481;27;84413;-59
2024/01/13 17:31:00;;;;;;;4.95;2.15;;;24.00;44.10;;;;;;6248569;27;80695;-60
2024/01/13 17:34:00;;;;;;;4.80;2.20;;;24.00;44.00;;;;;;6249360;27;82203;-61
2024/01/13 17:37:01;;;;;;;3.78;2.13;;;24.00;43.90;;;;;;6244133;27;81282;-61
2024/01/13 17:40:01;;;;;;;2.47;1.40;;;23.90;43.70;;;;;;6248330;27;84666;-53
2024/01/13 17:43:02;;;;;;;2.53;1.52;;;23.90;43.60;;;;;;6249588;27;81180;-53
2024/01/13 17:46:02;;;;;;;2.00;1.60;;;23.90;43.30;;;;;;6230730;27;83373;-50
2024/01/13 17:49:03;;;;;;;1.77;1.35;;;23.90;43.10;;;;;;6241888;27;80566;-55
2024/01/13 17:52:03;;;;;;;3.20;1.40;;;24.00;43.10;;;;;;6252095;27;81711;-52
2024/01/13 17:55:06;;;;;;;4.18;1.50;;;24.00;42.90;;;;;;6242696;27;80935;-50
2024/01/13 17:58:08;;;;;;;2.10;1.40;;;24.00;42.80;;;;;;6247089;27;80640;-52
2024/01/13 18:01:08;;;;;;;2.17;1.40;;;24.00;42.20;;;;;;6245393;27;80245;-50
2024/01/13 18:04:09;;;;;;;4.80;1.60;;;23.90;42.10;;;;;;6248198;27;80132;-51
2024/01/13 18:07:09;;;;;;;2.20;1.40;;;23.90;41.60;;;;;;6249967;27;82046;-50
2024/01/13 18:10:11;;;;;;;2.47;1.10;;;23.90;41.50;;;;;;6252465;27;81109;-52
2024/01/13 18:13:11;;;;;;;1.55;1.20;;;23.90;41.30;;;;;;6251859;27;80610;-49
2024/01/13 18:16:12;;;;;;;2.75;1.50;;;23.90;41.10;;;;;;6251198;27;82205;-54
2024/01/13 18:19:12;;;;;;;1.85;1.60;;;23.90;41.40;;;;;;6249333;27;81233;-54
2024/01/13 18:22:13;;;;;;;2.53;1.67;;;23.80;41.50;;;;;;6251561;27;80163;-56
2024/01/13 18:25:13;;;;;;;3.88;2.05;;;23.80;41.80;;;;;;6239808;27;81595;-55
2024/01/13 18:28:14;;;;;;;2.08;1.73;;;23.80;41.60;;;;;;6250815;27;80576;-53
2024/01/13 18:31:14;;;;;;;3.05;1.88;;;23.80;42.10;;;;;;6251738;27;80214;-53
2024/01/13 18:34:20;;;;;;;4.00;1.90;;;23.80;41.40;;;;;;6251709;27;81076;-51
2024/01/13 18:37:22;;;;;;;7.20;2.38;;;23.80;41.30;;;;;;6220670;27;81817;-51
2024/01/13 18:40:23;;;;;;;3.47;1.75;;;23.80;41.10;;;;;;6232052;27;81206;-56
2024/01/13 18:43:23;;;;;;;6.45;2.13;;;23.80;40.80;;;;;;6222307;27;83245;-54
2024/01/13 18:46:24;;;;;;;2.47;2.20;;;23.80;40.70;;;;;;6236491;27;80936;-55
2024/01/13 18:49:24;;;;;;;3.13;2.40;;;23.80;40.80;;;;;;6229881;27;81123;-52
2024/01/13 18:52:26;;;;;;;4.82;2.65;;;23.80;41.50;;;;;;6235021;27;82895;-52
2024/01/13 18:55:26;;;;;;;4.22;3.22;;;23.80;41.40;;;;;;6232421;27;81781;-62
2024/01/13 18:58:27;;;;;;;3.55;3.17;;;23.90;41.50;;;;;;6236941;27;80788;-63
2024/01/13 19:01:28;;;;;;;4.25;3.33;;;23.90;41.20;;;;;;6232141;27;80754;-62
2024/01/13 19:04:29;;;;;;;3.42;2.83;;;23.90;41.70;;;;;;6230156;27;84633;-62
2024/01/13 19:07:29;;;;;;;4.55;3.03;;;23.90;41.40;;;;;;6230640;27;80633;-62
2024/01/13 19:10:30;;;;;;;7.03;3.63;;;23.80;40.90;;;;;;6231290;27;81331;-62
2024/01/13 19:13:31;;;;;;;6.85;3.20;;;23.80;40.80;;;;;;6228034;27;82286;-53
2024/01/13 19:16:33;;;;;;;3.42;3.10;;;23.90;40.60;;;;;;6232694;27;81336;-53
2024/01/13 19:19:34;;;;;;;4.97;3.08;;;23.80;40.20;;;;;;6233589;27;82693;-55
2024/01/13 19:22:34;;;;;;;3.63;3.10;;;23.90;40.20;;;;;;6236903;27;81475;-58
2024/01/13 19:25:35;;;;;;;3.60;3.10;;;23.90;40.70;;;;;;6220461;27;81693;-59
2024/01/13 19:28:37;;;;;;;6.85;3.28;;;23.90;40.80;;;;;;6236072;27;82929;-59
2024/01/13 19:31:37;;;;;;;4.57;3.35;;;23.90;40.80;;;;;;6234801;27;80815;-58
2024/01/13 19:34:38;;;;;;;4.30;3.58;;;23.90;40.50;;;;;;6222258;27;81413;-57
2024/01/13 19:37:39;;;;;;;4.30;3.50;;;23.90;40.50;;;;;;6236864;27;82734;-58
2024/01/13 19:40:40;;;;;;;5.38;3.70;;;23.80;40.10;;;;;;6237034;27;81647;-54
2024/01/13 19:43:40;;;;;;;5.38;3.53;;;23.80;40.20;;;;;;6229941;27;81283;-55
2024/01/13 19:46:41;;;;;;;4.70;3.58;;;23.80;40.00;;;;;;6231854;27;81295;-53
2024/01/13 19:49:43;;;;;;;3.70;3.40;;;23.90;39.90;;;;;;6224481;27;81525;-55
2024/01/13 19:52:43;;;;;;;3.78;3.35;;;23.80;39.90;;;;;;6220024;27;81289;-57
2024/01/13 19:55:44;;;;;;;4.53;3.58;;;23.90;39.70;;;;;;6231858;27;81498;-55
2024/01/13 19:58:44;;;;;;;4.82;3.47;;;23.90;39.80;;;;;;6221911;27;81895;-54